OMO weather

Mostar International Airport
Mostar, Federacija Bosna i Hercegovina, Bosnia and Herzegovina

Public forecast

Using degrees Celsius for public forecast. Weather courtesy of forecast.io.

Current aviation weather report (METAR) for Mostar International Airport

Retrieved 2020/02/28 08:32 UTC (13 minutes ago):

LQMO 280832Z 34012KT 310V010 9999 SCT040 BKN055 08/01 Q1006

Aviation forecast (TAF) for Mostar International Airport

Retrieved 2020/02/28 06:08 UTC (3 hours ago):

TAF LQMO 280500Z 2806/2906 16012KT 9999 BKN050 TX10/2814Z TNM02/2905Z TEMPO 2806/2810 RA BKN015 OVC040 PROB30 TEMPO 2806/2809 20015G25KT 4000 TSRA FEW030CB BKN045 BECMG 2809/2811 36012KT PROB30 TEMPO 2812/2817 02017G30KT TEMPO 2817/2906 30005KT